Nearby METAR Reports

 

KAVP - Avoca/Wilkes B., Pennsylvania, USA
Distance from station: SW 13mi, 22km
Updated: Thu, 20-Sep-2018 05:54 EDT
Clear
Clear
 Wind from ESE
Wind: ESE 5 mph , 7 km/h
Temperature: 54°F , 12°C
Dew Point: 54°F , 12°C
Humidity: 100%
Barometer: 30.15 inHg , 1021 hPa
Clouds: Clear
Visibility: 10 miles , 16 km
2018/09/20 09:54 KAVP 200954Z AUTO 12004KT 10SM CLR 12/12 A3015 RMK AO2 SLP205 T01220117 $
KMPO - Mt. Pocono, Pennsylvania, USA
Distance from station: SSE 26mi, 43km
Updated: Thu, 20-Sep-2018 06:43 EDT
Overcast
Overcast
 Wind from E
Wind: E 3 mph , 6 km/h
Temperature: 57°F , 14°C
Dew Point: 57°F , 14°C
Humidity: 100%
Barometer: 30.17 inHg , 1021.7 hPa
Clouds: Overcast
Visibility: 10 miles , 16 km
Cloud details: Overcast 500 ft
2018/09/20 10:43 KMPO 201043Z AUTO 08003KT 10SM OVC005 14/14 A3017 RMK AO2 T01440139
 
KMSV - Monticello, New York, USA
Distance from station: ENE 43mi, 69km
Updated: Thu, 20-Sep-2018 06:13 EDT
Overcast
Overcast
 Wind from E
Wind: E 5 mph , 7 km/h
Temperature: 57°F , 14°C
Dew Point: 55°F , 13°C
Humidity: 94%
Barometer: 30.17 inHg , 1021.7 hPa
Clouds: Overcast
Visibility: 10 miles , 16 km
Cloud details: Overcast 900 ft
2018/09/20 10:13 KMSV 201013Z AUTO 09004KT 10SM OVC009 14/13 A3017 RMK AO2 CIG 008V011
KFWN - Sussex, New Jersey, USA
Distance from station: ESE 52mi, 84km
Updated: Thu, 20-Sep-2018 05:53 EDT
Overcast
Overcast
 Wind from NNE
Wind: NNE 7 mph , 11 km/h
Temperature: 63°F , 17°C
Dew Point: 57°F , 14°C
Humidity: 83%
Barometer: 30.14 inHg , 1020.7 hPa
Clouds: Overcast
Visibility: 10 miles , 16 km
Cloud details: Overcast 1300 ft
2018/09/20 09:53 KFWN 200953Z AUTO 03006KT 10SM OVC013 17/14 A3014 RMK AO2 SLP202 T01670144
 
K12N - Andover, New Jersey, USA
Distance from station: SE 54mi, 87km
Updated: Thu, 20-Sep-2018 05:54 EDT

 Wind from varies
Wind: varies 3 mph , 6 km/h
Temperature: 63°F , 17°C
Dew Point: 61°F , 16°C
Humidity: 94%
Barometer: 30.14 inHg , 1020.7 hPa
2018/09/20 09:54 K12N 200954Z AUTO VRB03KT 17/16 A3014 RMK AO1 SLP199 T01720156
KBGM - Binghamton, New York, USA
Distance from station: NNW 55mi, 88km
Updated: Thu, 20-Sep-2018 06:19 EDT
Fog, Overcast
Fog, Overcast
 Wind from calm
Wind: Calm
Temperature: 48°F , 9°C
Dew Point: 48°F , 9°C
Humidity: 100%
Barometer: 30.17 inHg , 1021.7 hPa
Summary: Fog
Clouds: Overcast
Visibility: 1/4 mile , 0.4 km
Cloud details: Overcast 300 ft
2018/09/20 10:19 KBGM 201019Z 00000KT 1/4SM FG VV003 09/09 A3017 RMK AO2 T00940094
 
KABE - Allentown, Pennsylvania, USA
Distance from station: S 58mi, 94km
Updated: Thu, 20-Sep-2018 05:59 EDT
Overcast
Overcast
 Wind from calm
Wind: Calm
Temperature: 64°F , 18°C
Dew Point: 61°F , 16°C
Humidity: 88%
Barometer: 30.13 inHg , 1020.3 hPa
Clouds: Overcast
Visibility: 10 miles , 16 km
Cloud details: Mostly cloudy 1200 ft
Overcast 2300 ft
2018/09/20 09:59 KABE 200959Z 00000KT 10SM BKN012 OVC023 18/16 A3013 RMK AO2 T01830156
KXLL - Allentown Queen, Pennsylvania, USA
Distance from station: S 64mi, 103km
Updated: Thu, 20-Sep-2018 06:35 EDT
Mostly cloudy
Mostly cloudy
 Wind from NE
Wind: NE 3 mph , 6 km/h
Barometer: 30.15 inHg , 1021 hPa
Clouds: Mostly cloudy
Visibility: 10 miles , 16 km
Cloud details: Partly cloudy 1000 ft
Mostly cloudy 2500 ft
2018/09/20 10:35 KXLL 201035Z AUTO 05003KT 10SM SCT010 BKN025 A3015 RMK AO2
 
KMGJ - Montgomery, New York, USA
Distance from station: E 67mi, 108km
Updated: Thu, 20-Sep-2018 05:54 EDT

 
Barometer: 30.14 inHg , 1020.7 hPa
2018/09/20 09:54 KMGJ 200954Z AUTO A3014 RMK AO2 SLPNO PWINO $
KIPT - Williamsport, Pennsylvania, USA
Distance from station: WSW 72mi, 116km
Updated: Thu, 20-Sep-2018 05:54 EDT
Clear
Clear
 Wind from NNW
Wind: NNW 3 mph , 6 km/h
Temperature: 57°F , 14°C
Dew Point: 54°F , 12°C
Humidity: 88%
Barometer: 30.14 inHg , 1020.7 hPa
Clouds: Clear
Visibility: 10 miles , 16 km
2018/09/20 09:54 KIPT 200954Z AUTO 34003KT 10SM CLR 14/12 A3014 RMK AO2 SLP205 T01390122
 
KUKT - Quakertown Arp, Pennsylvania, USA
Distance from station: S 74mi, 119km
Updated: Thu, 20-Sep-2018 06:35 EDT
Overcast
Overcast
 Wind from calm
Wind: Calm
Temperature: 66°F , 19°C
Dew Point: 64°F , 18°C
Humidity: 94%
Barometer: 30.14 inHg , 1020.7 hPa
Clouds: Overcast
Visibility: 10 miles , 16 km
Cloud details: Overcast 700 ft
2018/09/20 10:35 KUKT 201035Z AUTO 00000KT 10SM OVC007 19/18 A3014 RMK A01
KSMQ - Somerville, New Jersey, USA
Distance from station: SE 76mi, 123km
Updated: Thu, 20-Sep-2018 05:53 EDT
Light rain, Overcast
Light rain, Overcast
 Wind from calm
Wind: Calm
Temperature: 64°F , 18°C
Dew Point: 61°F , 16°C
Humidity: 88%
Barometer: 30.11 inHg , 1019.6 hPa
Summary: Light rain
Clouds: Overcast
Visibility: 10 miles , 16 km
Cloud details: Overcast 2000 ft
2018/09/20 09:53 KSMQ 200953Z AUTO 00000KT 10SM -RA OVC020 18/16 A3011 RMK AO2 RAB48 SLP197 P0000 T01830161
 
KSWF - Newburgh/Stewart, New York, USA
Distance from station: E 77mi, 123km
Updated: Thu, 20-Sep-2018 06:45 EDT
Light drizzle, Overcast
Light drizzle, Overcast
 Wind from calm
Wind: Calm
Temperature: 59°F , 15°C
Dew Point: 57°F , 14°C
Humidity: 94%
Barometer: 30.17 inHg , 1021.7 hPa
Summary: Light Drizzle
Clouds: Overcast
Visibility: 10 miles , 16 km
Cloud details: Overcast 1200 ft
2018/09/20 10:45 KSWF 201045Z 00000KT 10SM -DZ OVC012 15/14 A3017
KMMU - Morristown Muni, New Jersey, USA
Distance from station: SE 77mi, 124km
Updated: Thu, 20-Sep-2018 06:45 EDT
Overcast
Overcast
 Wind from ENE
Wind: ENE 5 mph , 7 km/h
Temperature: 63°F , 17°C
Dew Point: 63°F , 17°C
Humidity: 100%
Barometer: 30.16 inHg , 1021.3 hPa
Clouds: Overcast
Visibility: 10 miles , 16 km
Cloud details: Overcast 1800 ft
2018/09/20 10:45 KMMU 201045Z 07004KT 10SM OVC018 17/17 A3016
 
KCDW - Caldwell, New Jersey, USA
Distance from station: ESE 79mi, 127km
Updated: Thu, 20-Sep-2018 05:53 EDT
Overcast
Overcast
 Wind from SE
Wind: SE 6 mph , 9 km/h
Temperature: 64°F , 18°C
Dew Point: 61°F , 16°C
Humidity: 88%
Barometer: 30.14 inHg , 1020.7 hPa
Clouds: Overcast
Visibility: 10 miles , 16 km
Cloud details: Overcast 1800 ft
2018/09/20 09:53 KCDW 200953Z AUTO 13005KT 10SM OVC018 18/16 A3014 RMK AO2 SLP210 T01780156
KRDG - Reading, Pennsylvania, USA
Distance from station: SSW 80mi, 130km
Updated: Thu, 20-Sep-2018 05:54 EDT
Overcast
Overcast
 Wind from NNE
Wind: NNE 3 mph , 6 km/h
Temperature: 64°F , 18°C
Dew Point: 63°F , 17°C
Humidity: 94%
Barometer: 30.11 inHg , 1019.6 hPa
Clouds: Overcast
Visibility: 10 miles , 16 km
Cloud details: Overcast 2400 ft
2018/09/20 09:54 KRDG 200954Z 02003KT 10SM OVC024 18/17 A3011 RMK AO2 SLP198 T01780167
 
KITH - Ithaca/Tompkins, New York, USA
Distance from station: NW 81mi, 131km
Updated: Thu, 20-Sep-2018 06:38 EDT
Fog, Overcast
Fog, Overcast
 Wind from ENE
Wind: ENE 5 mph , 7 km/h
Temperature: 46°F , 8°C
Wind Chill: 44°F , 7°C
Dew Point: 46°F , 8°C
Humidity: 100%
Barometer: 30.19 inHg , 1022.4 hPa
Summary: Fog
Clouds: Overcast
Visibility: 1/8 mile , 0.2 km
Cloud details: Overcast 100 ft
2018/09/20 10:38 KITH 201038Z 06004KT 1/8SM R32/2200V3000FT FG VV001 08/08 A3019 RMK AO2
KSEG - Selinsgrove, Pennsylvania, USA
Distance from station: SW 82mi, 132km
Updated: Thu, 20-Sep-2018 05:53 EDT
Clear
Clear
 Wind from NW
Wind: NW 3 mph , 6 km/h
Temperature: 57°F , 14°C
Dew Point: 55°F , 13°C
Humidity: 94%
Barometer: 30.15 inHg , 1021 hPa
Clouds: Clear
Visibility: 10 miles , 16 km
2018/09/20 09:53 KSEG 200953Z AUTO 31003KT 10SM CLR 14/13 A3015 RMK AO2 SLP206 T01390133
 
KELM - Elmira, New York, USA
Distance from station: WNW 82mi, 133km
Updated: Thu, 20-Sep-2018 05:53 EDT
Overcast
Overcast
 Wind from calm
Wind: Calm
Temperature: 52°F , 11°C
Dew Point: 50°F , 10°C
Humidity: 94%
Barometer: 30.15 inHg , 1021 hPa
Clouds: Overcast
Visibility: 10 miles , 16 km
Cloud details: Overcast 400 ft
2018/09/20 09:53 KELM 200953Z 00000KT 10SM OVC004 11/10 A3015 RMK AO2 CIG 002V006 SLP210 T01110100
KDYL - Doylestown, Pennsylvania, USA
Distance from station: SSE 83mi, 134km
Updated: Thu, 20-Sep-2018 05:54 EDT
Overcast
Overcast
 Wind from SSE
Wind: SSE 3 mph , 6 km/h
Temperature: 66°F , 19°C
Dew Point: 64°F , 18°C
Humidity: 94%
Barometer: 30.11 inHg , 1019.6 hPa
Clouds: Overcast
Visibility: 10 miles , 16 km
Cloud details: Overcast 1000 ft
2018/09/20 09:54 KDYL 200954Z AUTO 16003KT 10SM OVC010 19/18 A3011 RMK AO2 RAB0856E28 SLP193 P0001 T01890178